Terminal Aerodrome Forecast
Issued by NWS

Home | Current Version | Previous Version | Text Only | Print | Product List | Glossary On
Versions: 1 2 3 4 5 6 7 8 9 10 11 12 13 14 15 16 17
106
FTUS46 KPDT 230158 AAB
TAFALW
TAF AMD
KALW 230158Z 2302/2324 20009KT P6SM BKN070
     FM230600 13008KT P6SM SCT030 BKN060
     FM231200 17005KT P6SM SCT100 BKN120
     FM232100 24005KT 6SM BR SCT020 BKN100=

USA.gov is the U.S. government's official web portal to all federal, state and local government web resources and services.